Time;durP1;ratioP1;P1;durP2;ratioP2;P2;SDS_P1;SDS_P2;PMS_P1;PMS_P2;Temp;Humidity;BMP_temperature;BMP_pressure;BME280_temperature;BME280_humidity;BME280_pressure;Samples;Min_cycle;Max_cycle;Signal;HPM_P1;HPM_P2
2022/04/30 00:00:43;;;;;;;43.17;17.17;;;;;;;13.38;100.00;62230.19;5054459;28;20213;-71
2022/04/30 00:03:10;;;;;;;35.17;15.67;;;;;;;13.46;100.00;62238.78;5054177;28;20262;-72
2022/04/30 00:05:37;;;;;;;26.40;16.03;;;;;;;13.46;100.00;62243.91;5053519;28;20197;-72
2022/04/30 00:08:05;;;;;;;34.23;16.03;;;;;;;13.54;100.00;62247.91;5053834;28;20193;-73
2022/04/30 00:10:37;;;;;;;26.83;15.20;;;;;;;13.65;100.00;62261.22;5054072;28;20286;-72
2022/04/30 00:13:06;;;;;;;21.23;14.57;;;;;;;12.68;100.00;62158.63;5053927;28;20204;-73
2022/04/30 00:15:34;;;;;;;25.43;14.90;;;;;;;13.41;100.00;62228.28;5053748;28;20633;-72
2022/04/30 00:18:01;;;;;;;22.07;14.37;;;;;;;13.27;100.00;62218.91;5053752;28;20201;-71
2022/04/30 00:20:28;;;;;;;24.83;14.27;;;;;;;13.18;100.00;62208.72;5053694;28;20209;-73
2022/04/30 00:22:55;;;;;;;22.50;15.00;;;;;;;13.28;100.00;62216.91;5053583;28;20729;-73
2022/04/30 00:25:23;;;;;;;22.73;13.83;;;;;;;13.34;100.00;62223.34;5053958;28;20262;-71
2022/04/30 00:27:50;;;;;;;25.17;14.20;;;;;;;13.42;100.00;62232.44;5053657;28;20288;-73
2022/04/30 00:30:19;;;;;;;21.03;14.37;;;;;;;13.41;100.00;62235.97;5053666;28;20224;-75
2022/04/30 00:32:46;;;;;;;20.77;14.57;;;;;;;13.28;100.00;62219.44;5079377;28;20265;-73
2022/04/30 00:35:14;;;;;;;18.87;13.87;;;;;;;13.39;100.00;62231.81;5093636;28;20195;-72
2022/04/30 00:37:41;;;;;;;21.27;14.23;;;;;;;13.41;100.00;62228.28;5093591;28;20710;-73
2022/04/30 00:40:09;;;;;;;21.43;14.30;;;;;;;13.51;100.00;62244.16;5093617;28;20196;-73
2022/04/30 00:42:36;;;;;;;22.07;14.13;;;;;;;13.26;100.00;62217.81;5093572;28;20283;-72
2022/04/30 00:45:04;;;;;;;22.80;14.27;;;;;;;13.50;100.00;62243.09;5093533;28;20200;-71
2022/04/30 00:47:32;;;;;;;21.73;14.27;;;;;;;13.50;100.00;62243.09;5093342;28;20203;-72
2022/04/30 00:49:59;;;;;;;22.10;14.73;;;;;;;13.41;100.00;62235.97;5093151;28;20622;-73
2022/04/30 00:52:26;;;;;;;21.83;14.43;;;;;;;13.37;100.00;62226.56;5093415;28;20261;-74
2022/04/30 00:55:02;;;;;;;26.50;15.33;;;;;;;13.34;100.00;62225.91;5085040;28;20287;-74
2022/04/30 00:57:32;;;;;;;25.30;15.93;;;;;;;13.25;100.00;62216.22;5093475;28;20279;-72
2022/04/30 01:00:00;;;;;;;25.33;14.73;;;;;;;13.26;100.00;62219.88;5092991;28;20200;-73
2022/04/30 01:02:29;;;;;;;19.50;13.63;;;;;;;12.91;100.00;62179.69;5093047;28;20195;-72
2022/04/30 01:04:59;;;;;;;23.13;13.57;;;;;;;13.12;100.00;62202.78;5092876;28;20213;-72
2022/04/30 01:07:28;;;;;;;21.20;14.13;;;;;;;13.02;100.00;62188.94;5093266;28;20200;-71
2022/04/30 01:09:55;;;;;;;19.57;14.03;;;;;;;12.94;100.00;62183.44;5092954;28;20195;-72
2022/04/30 01:12:23;;;;;;;19.60;13.20;;;;;;;13.03;100.00;62192.56;5092729;28;20284;-72
2022/04/30 01:14:52;;;;;;;29.33;13.87;;;;;;;12.99;100.00;62188.28;5092663;28;20761;-72
2022/04/30 01:17:21;;;;;;;20.57;14.13;;;;;;;12.95;100.00;62178.88;5091914;28;20198;-72
2022/04/30 01:19:49;;;;;;;20.97;13.57;;;;;;;12.96;100.00;62185.06;5092960;28;20233;-71
2022/04/30 01:22:23;;;;;;;26.37;14.70;;;;;;;12.97;100.00;62186.13;5092877;28;20292;-72
2022/04/30 01:24:55;;;;;;;19.93;13.57;;;;;;;13.05;100.00;62194.75;5092660;28;20200;-72
2022/04/30 01:27:25;;;;;;;22.20;14.07;;;;;;;13.07;100.00;62194.34;5092591;28;20621;-72
2022/04/30 01:29:53;;;;;;;28.50;15.00;;;;;;;12.99;100.00;62183.16;5092591;28;20200;-72
2022/04/30 01:37:57;;;;;;;25.37;14.87;;;;;;;12.46;100.00;62132.44;5092609;28;20182;-71
2022/04/30 01:40:25;;;;;;;24.57;14.13;;;;;;;12.48;100.00;62134.59;5092898;28;20203;-72
2022/04/30 01:42:55;;;;;;;24.77;14.97;;;;;;;12.42;100.00;62127.63;5092359;28;20662;-72
2022/04/30 01:45:23;;;;;;;24.63;15.03;;;;;;;12.44;100.00;62125.19;5092526;28;20196;-72
2022/04/30 01:47:50;;;;;;;27.53;15.10;;;;;;;12.14;100.00;62098.09;5092356;28;20199;-72
2022/04/30 01:50:17;;;;;;;28.33;15.10;;;;;;;12.10;100.00;62095.84;5092125;28;20191;-71
2022/04/30 01:52:43;;;;;;;24.50;14.80;;;;;;;12.07;100.00;62090.59;5092398;28;20261;-71
2022/04/30 01:55:11;;;;;;;23.80;15.73;;;;;;;12.11;100.00;62094.91;5095626;28;20204;-72
2022/04/30 01:57:41;;;;;;;29.80;15.90;;;;;;;12.07;100.00;62085.50;5095844;28;20225;-71
2022/04/30 02:00:12;;;;;;;29.17;16.33;;;;;;;12.01;100.00;62081.63;5092382;28;20200;-72
2022/04/30 02:02:40;;;;;;;23.03;15.27;;;;;;;11.96;100.00;62078.81;5091999;28;20249;-71
2022/04/30 02:05:09;;;;;;;23.63;15.13;;;;;;;11.88;100.00;62070.22;5092441;28;20236;-72
2022/04/30 02:07:40;;;;;;;21.93;14.93;;;;;;;11.95;100.00;62080.28;5092072;28;20686;-72
2022/04/30 02:10:08;;;;;;;22.47;15.13;;;;;;;12.04;100.00;62087.38;5091877;28;20235;-72
2022/04/30 02:12:38;;;;;;;27.70;16.23;;;;;;;11.87;100.00;62066.59;5090639;28;20227;-72
2022/04/30 02:15:08;;;;;;;21.97;15.23;;;;;;;11.87;100.00;62071.72;5091737;28;20245;-72
2022/04/30 02:17:38;;;;;;;23.53;15.67;;;;;;;11.48;100.00;62027.28;5091867;28;20252;-72
2022/04/30 02:20:22;;;;;;;22.47;15.23;;;;;;;11.90;100.00;62072.38;5092053;28;20279;-72
2022/04/30 02:22:50;;;;;;;24.67;15.93;;;;;;;11.87;100.00;62071.72;5091816;28;20211;-71
2022/04/30 02:25:19;;;;;;;21.40;15.40;;;;;;;12.04;100.00;62086.84;5091722;28;20191;-72
2022/04/30 02:27:47;;;;;;;21.30;15.00;;;;;;;11.99;100.00;62082.03;5092155;28;20284;-71
2022/04/30 02:30:18;;;;;;;24.20;15.53;;;;;;;12.06;100.00;62092.09;5093511;28;20272;-72
2022/04/30 02:32:47;;;;;;;27.37;16.70;;;;;;;12.13;100.00;62097.03;5092215;28;20245;-72
2022/04/30 02:35:15;;;;;;;27.27;16.43;;;;;;;12.03;100.00;62083.22;5091756;28;20588;-72
2022/04/30 02:37:44;;;;;;;23.60;15.30;;;;;;;12.07;100.00;62090.59;5091681;28;20195;-73
2022/04/30 02:40:14;;;;;;;26.23;16.00;;;;;;;12.09;100.00;62092.75;5091623;28;20199;-72
2022/04/30 02:42:41;;;;;;;27.93;16.23;;;;;;;12.09;100.00;62092.75;5091538;28;20231;-71
2022/04/30 02:45:09;;;;;;;24.80;15.30;;;;;;;12.10;100.00;62093.81;5091659;28;20231;-72
2022/04/30 02:47:39;;;;;;;29.00;15.87;;;;;;;11.78;100.00;62062.03;5091424;28;20286;-71
2022/04/30 02:50:08;;;;;;;23.03;15.03;;;;;;;12.10;100.00;62093.81;5091440;28;20549;-74
2022/04/30 02:52:35;;;;;;;31.00;16.77;;;;;;;12.04;100.00;62087.38;5091484;28;20263;-74
2022/04/30 02:55:02;;;;;;;24.90;15.90;;;;;;;11.94;100.00;62076.13;5091287;28;20200;-73
2022/04/30 02:57:39;;;;;;;27.77;16.27;;;;;;;11.87;100.00;62064.56;5091343;28;20195;-74
2022/04/30 03:00:07;;;;;;;31.37;16.03;;;;;;;11.95;100.00;62077.75;5091408;28;20757;-72
2022/04/30 03:02:33;;;;;;;25.23;14.03;;;;;;;12.02;100.00;62085.25;5091393;28;20223;-72
2022/04/30 03:05:01;;;;;;;24.20;15.83;;;;;;;12.08;100.00;62094.22;5091315;28;20233;-72
2022/04/30 03:07:28;;;;;;;26.23;15.57;;;;;;;11.46;100.00;62030.25;5091077;28;20195;-72
2022/04/30 03:09:55;;;;;;;31.27;16.23;;;;;;;12.07;100.00;62085.50;5091130;28;20253;-72
2022/04/30 03:12:22;;;;;;;26.97;15.77;;;;;;;12.06;100.00;62092.09;5091580;28;20296;-72
2022/04/30 03:14:48;;;;;;;28.17;15.60;;;;;;;12.04;100.00;62086.84;5090968;28;20252;-72
2022/04/30 03:22:47;;;;;;;28.93;16.60;;;;;;;12.03;100.00;62083.22;5091209;28;20697;-74
2022/04/30 03:25:13;;;;;;;32.77;15.50;;;;;;;12.05;100.00;62085.91;5091342;28;20743;-71
2022/04/30 03:27:40;;;;;;;31.20;16.83;;;;;;;12.02;100.00;62082.69;5091217;28;20252;-71
2022/04/30 03:30:08;;;;;;;25.63;15.93;;;;;;;11.85;100.00;62062.44;5091513;28;20627;-73
2022/04/30 03:32:35;;;;;;;27.83;15.30;;;;;;;11.71;100.00;62052.00;5091179;28;20239;-72
2022/04/30 03:35:04;;;;;;;23.10;15.23;;;;;;;11.79;100.00;62060.56;5091113;28;20203;-71
2022/04/30 03:37:32;;;;;;;27.57;15.93;;;;;;;11.85;100.00;62067.00;5090949;28;20299;-73
2022/04/30 03:39:59;;;;;;;32.03;16.17;;;;;;;11.75;100.00;62056.28;5092281;28;20204;-73
2022/04/30 03:42:26;;;;;;;31.70;16.57;;;;;;;11.79;100.00;62058.53;5094606;28;20663;-72
2022/04/30 03:44:53;;;;;;;26.27;15.80;;;;;;;11.83;100.00;62065.38;5094426;28;20253;-73
2022/04/30 03:47:20;;;;;;;35.27;15.97;;;;;;;11.82;100.00;62066.34;5094596;28;20282;-73
2022/04/30 03:49:47;;;;;;;33.63;16.83;;;;;;;11.86;100.00;62071.16;5095150;28;20203;-72
2022/04/30 03:52:15;;;;;;;21.53;15.63;;;;;;;11.87;100.00;62071.72;5094422;28;20238;-72
2022/04/30 03:54:42;;;;;;;29.30;16.73;;;;;;;11.39;100.00;62023.28;5094394;28;20253;-72
2022/04/30 03:57:09;;;;;;;27.40;16.27;;;;;;;11.96;100.00;62076.25;5094195;28;20252;-71
2022/04/30 03:59:36;;;;;;;23.10;15.13;;;;;;;12.01;100.00;62084.16;5094262;28;20200;-72
2022/04/30 04:02:03;;;;;;;28.90;16.10;;;;;;;11.32;100.00;62010.16;5094597;28;20196;-72
2022/04/30 04:04:31;;;;;;;32.80;15.40;;;;;;;12.12;100.00;62095.97;5094356;28;20229;-72
2022/04/30 04:06:58;;;;;;;43.43;17.50;;;;;;;12.14;100.00;62095.56;5094108;28;20203;-72
2022/04/30 04:09:27;;;;;;;37.97;16.77;;;;;;;12.23;100.00;62107.78;5094082;28;20199;-70
2022/04/30 04:11:54;;;;;;;31.50;17.17;;;;;;;11.95;100.00;62077.75;5093943;28;20525;-72
2022/04/30 04:19:48;;;;;;;27.93;16.53;;;;;;;12.25;100.00;62109.91;5094176;28;20202;-73
2022/04/30 04:22:15;;;;;;;28.57;16.37;;;;;;;12.23;100.00;62104.69;5093891;28;20277;-71
2022/04/30 04:27:29;;;;;;;38.93;17.10;;;;;;;12.41;100.00;62127.09;5094042;28;20317;-72
2022/04/30 04:29:56;;;;;;;34.20;16.40;;;;;;;12.66;100.00;62153.91;5093754;28;20192;-73
2022/04/30 04:32:24;;;;;;;31.63;16.17;;;;;;;12.77;100.00;62165.19;5093768;28;20239;-73
2022/04/30 04:34:52;;;;;;;29.67;16.27;;;;;;;12.72;100.00;62160.34;5093529;28;20227;-74
2022/04/30 04:37:21;;;;;;;82.83;19.93;;;;;;;12.83;100.00;62171.09;5093494;28;20256;-72
2022/04/30 04:39:49;;;;;;;45.10;16.83;;;;;;;13.00;100.00;62189.34;5093708;28;20287;-72
2022/04/30 04:42:19;;;;;;;34.87;15.57;;;;;;;13.07;100.00;62191.78;5093327;28;20724;-72
2022/04/30 04:44:46;;;;;;;43.80;16.63;;;;;;;13.11;100.00;62206.31;5093253;28;20666;-71
2022/04/30 04:47:13;;;;;;;23.53;14.57;;;;;;;13.30;100.00;62221.59;5093101;28;20610;-72
2022/04/30 04:49:40;;;;;;;26.87;15.23;;;;;;;13.32;100.00;62218.63;5093239;28;20199;-72
2022/04/30 04:52:09;;;;;;;28.60;15.00;;;;;;;13.47;100.00;62237.28;5093218;28;20248;-73
2022/04/30 04:54:36;;;;;;;25.70;13.90;;;;;;;13.54;100.00;62247.38;5093154;28;20613;-72
2022/04/30 04:57:05;;;;;;;19.40;13.17;;;;;;;13.61;100.00;62252.34;5092922;28;20195;-72
2022/04/30 04:59:31;;;;;;;25.40;14.00;;;;;;;13.71;100.00;62262.53;5092828;28;20259;-72
2022/04/30 05:01:59;;;;;;;21.87;13.13;;;;;;;13.72;100.00;62266.19;5092794;28;20698;-72
2022/04/30 05:04:26;;;;;;;19.20;13.67;;;;;;;13.78;100.00;62272.63;5093264;28;20199;-71
2022/04/30 05:06:52;;;;;;;19.27;12.63;;;;;;;13.98;100.00;62294.66;5091928;28;20210;-71
2022/04/30 05:09:19;;;;;;;18.53;12.57;;;;;;;14.10;100.00;62307.56;5092930;28;20377;-73
2022/04/30 05:11:46;;;;;;;20.27;13.57;;;;;;;14.17;100.00;62315.09;5092736;28;20706;-72
2022/04/30 05:14:14;;;;;;;19.80;13.77;;;;;;;14.11;100.00;62308.63;5092616;28;20663;-72
2022/04/30 05:16:41;;;;;;;18.80;12.60;;;;;;;14.28;100.00;62323.84;5092863;28;20191;-74
2022/04/30 05:19:08;;;;;;;20.50;12.80;;;;;;;14.57;100.00;62357.06;5092601;28;20816;-72
2022/04/30 05:21:34;;;;;;;19.97;13.13;;;;;;;14.55;100.00;62354.91;5092763;28;20195;-73
2022/04/30 05:24:01;;;;;;;20.13;13.47;;;;;;;14.57;100.00;62359.63;5092448;28;20367;-74
2022/04/30 05:26:28;;;;;;;22.10;13.10;;;;;;;14.67;100.00;62367.81;5092697;28;20268;-73
2022/04/30 05:28:55;;;;;;;20.30;13.87;;;;;;;14.97;100.00;62400.09;5092350;28;20737;-72
2022/04/30 05:31:23;;;;;;;20.43;13.67;;;;;;;15.00;100.00;62403.84;5092215;28;20728;-72
2022/04/30 05:33:50;;;;;;;21.70;14.20;;;;;;;14.99;100.00;62402.22;5092473;28;20654;-74
2022/04/30 05:36:16;;;;;;;26.03;14.40;;;;;;;15.14;100.00;62418.38;5093018;28;20282;-72
2022/04/30 05:38:43;;;;;;;17.83;13.43;;;;;;;15.29;100.00;62431.94;5094312;28;20261;-72
2022/04/30 05:41:10;;;;;;;20.13;13.20;;;;;;;15.32;100.00;62437.72;5096850;28;20221;-72
2022/04/30 05:43:37;;;;;;;25.13;12.30;;;;;;;15.59;100.00;62466.28;5092518;28;20203;-72
2022/04/30 05:46:04;;;;;;;21.97;12.77;;;;;;;15.93;100.00;62503.44;5092636;28;20283;-72
2022/04/30 05:48:32;;;;;;;19.37;13.07;;;;;;;15.93;100.00;62505.47;5092505;28;20200;-73
2022/04/30 05:50:59;;;;;;;18.77;13.07;;;;;;;15.92;100.00;62499.25;5092224;28;20203;-72
2022/04/30 05:53:26;;;;;;;19.17;13.30;;;;;;;15.97;100.00;62504.63;5092130;28;20231;-74
2022/04/30 05:55:52;;;;;;;21.40;13.40;;;;;;;16.05;100.00;62516.34;5091738;28;20199;-71
2022/04/30 05:58:20;;;;;;;19.97;13.20;;;;;;;16.21;100.00;62530.47;5092229;28;20203;-72
2022/04/30 06:00:47;;;;;;;48.03;14.83;;;;;;;16.28;100.00;62540.06;5092443;28;20222;-72
2022/04/30 06:03:13;;;;;;;34.27;14.07;;;;;;;16.29;100.00;62541.66;5091650;28;20195;-73
2022/04/30 06:05:42;;;;;;;17.33;11.57;;;;;;;16.48;100.00;62556.47;5092229;28;20204;-72
2022/04/30 06:08:09;;;;;;;16.80;12.43;;;;;;;16.50;100.00;62563.78;5091745;28;20733;-72
2022/04/30 06:10:37;;;;;;;21.37;13.03;;;;;;;16.43;100.00;62553.63;5091732;28;20260;-72
2022/04/30 06:13:05;;;;;;;20.20;13.77;;;;;;;16.45;100.00;62558.91;5091742;28;20330;-71
2022/04/30 06:15:32;;;;;;;21.13;13.10;;;;;;;16.02;100.00;62510.00;5091920;28;20199;-72
2022/04/30 06:17:59;;;;;;;27.70;12.77;;;;;;;16.29;100.00;62536.53;5091380;28;20592;-72
2022/04/30 06:20:25;;;;;;;16.73;12.30;;;;;;;16.38;100.00;62553.41;5091450;28;20203;-71
2022/04/30 06:22:53;;;;;;;15.13;11.40;;;;;;;16.53;100.00;62567.00;5091362;28;20608;-71
2022/04/30 06:25:21;;;;;;;17.17;10.47;;;;;;;16.74;100.00;62592.22;5091380;28;20662;-71
2022/04/30 06:27:48;;;;;;;17.57;10.10;;;;;;;16.75;100.00;62591.25;5091436;28;20276;-72
2022/04/30 06:30:15;;;;;;;12.47;9.40;;;;;;;16.95;100.00;62612.25;5091550;28;20639;-71
2022/04/30 06:32:42;;;;;;;8.97;7.20;;;;;;;16.52;100.00;62565.94;5091500;28;20228;-71
2022/04/30 06:35:09;;;;;;;9.90;7.83;;;;;;;16.78;100.00;62593.94;5091262;28;20222;-72
2022/04/30 06:37:36;;;;;;;10.37;8.93;;;;;;;15.98;100.00;62511.38;5091253;28;20196;-73
2022/04/30 06:40:06;;;;;;;12.93;9.03;;;;;;;16.77;100.00;62593.41;5091457;28;20340;-70
2022/04/30 06:42:40;;;;;;;11.20;8.53;;;;;;;16.84;100.00;62605.56;5091161;28;20291;-73
2022/04/30 06:45:08;;;;;;;12.20;9.70;;;;;;;16.79;100.00;62597.59;5091277;28;20200;-72
2022/04/30 06:47:35;;;;;;;12.27;8.93;;;;;;;16.95;100.00;62609.16;5091265;28;20195;-72
2022/04/30 06:50:02;;;;;;;12.50;9.50;;;;;;;17.11;100.00;62629.50;5091160;28;20690;-72
2022/04/30 06:52:30;;;;;;;14.53;9.27;;;;;;;17.21;100.00;62640.28;5091315;28;20653;-72
2022/04/30 06:57:45;;;;;;;14.70;10.43;;;;;;;18.07;100.00;62732.00;5091565;28;20206;-73
2022/04/30 07:03:02;;;;;;;11.67;9.43;;;;;;;18.65;100.00;62794.63;5091229;28;20289;-73
2022/04/30 07:05:30;;;;;;;13.03;9.53;;;;;;;18.75;100.00;62805.44;5091191;28;20192;-72
2022/04/30 07:07:58;;;;;;;13.03;8.90;;;;;;;18.82;100.00;62817.59;5091265;28;20284;-72
2022/04/30 07:10:25;;;;;;;11.90;9.43;;;;;;;18.46;100.00;62774.13;5091307;28;20253;-72
2022/04/30 07:12:54;;;;;;;12.60;9.13;;;;;;;18.82;100.00;62815.56;5090898;28;20288;-74
2022/04/30 07:15:20;;;;;;;12.20;9.50;;;;;;;18.73;100.00;62803.28;5092775;28;20196;-72
2022/04/30 07:17:47;;;;;;;12.33;8.57;;;;;;;18.79;100.00;62809.75;5094934;28;20252;-71
2022/04/30 07:20:14;;;;;;;11.80;9.23;;;;;;;18.63;100.00;62794.50;5095052;28;20588;-72
2022/04/30 07:22:41;;;;;;;12.63;9.07;;;;;;;18.88;100.00;62819.47;5093514;28;20602;-74
2022/04/30 07:25:09;;;;;;;10.90;8.67;;;;;;;18.99;100.00;62828.22;5094818;28;20203;-73
2022/04/30 07:27:35;;;;;;;13.60;9.10;;;;;;;19.30;100.00;62864.81;5094492;28;20678;-73
2022/04/30 07:30:04;;;;;;;13.30;9.00;;;;;;;18.63;100.00;62791.94;5095022;28;20261;-73
2022/04/30 07:32:31;;;;;;;10.63;8.43;;;;;;;19.14;100.00;62847.53;5094783;28;20240;-72
2022/04/30 07:34:58;;;;;;;12.40;8.67;;;;;;;19.05;100.00;62837.84;5094619;28;20203;-73
2022/04/30 07:37:25;;;;;;;12.63;8.33;;;;;;;19.17;100.00;62850.25;5095603;28;20258;-73
2022/04/30 07:39:52;;;;;;;11.50;9.07;;;;;;;19.69;100.00;62905.91;5095976;28;20199;-71
2022/04/30 07:42:19;;;;;;;13.90;9.03;;;;;;;19.78;100.00;62915.66;5094780;28;20662;-72
2022/04/30 07:44:45;;;;;;;10.20;8.40;;;;;;;19.57;100.00;62887.78;5094729;28;20273;-72
2022/04/30 07:47:14;;;;;;;11.30;8.43;;;;;;;19.47;100.00;62877.50;5094368;28;20204;-71
2022/04/30 07:49:41;;;;;;;9.67;7.77;;;;;;;19.73;100.00;62905.06;5094522;28;20603;-72
2022/04/30 07:52:08;;;;;;;12.27;7.73;;;;;;;20.05;100.00;62944.81;5094093;28;20636;-72
2022/04/30 07:54:35;;;;;;;11.37;8.27;;;;;;;20.09;100.00;62946.56;5094354;28;20249;-72
2022/04/30 07:57:02;;;;;;;9.20;7.30;;;;;;;20.16;100.00;62951.53;5094340;28;20200;-72
2022/04/30 07:59:29;;;;;;;11.93;7.53;;;;;;;20.23;100.00;62964.31;5094137;28;20666;-72
2022/04/30 08:01:56;;;;;;;8.93;6.87;;;;;;;20.16;100.00;62956.72;5094156;28;20195;-73
2022/04/30 08:04:24;;;;;;;7.87;6.57;;;;;;;19.81;100.00;62921.47;5094259;28;20199;-72
2022/04/30 08:06:51;;;;;;;8.80;7.20;;;;;;;19.61;100.00;62897.25;5094006;28;20249;-72
2022/04/30 08:09:18;;;;;;;8.07;7.00;;;;;;;19.71;100.00;62908.06;5094652;28;20195;-73
2022/04/30 08:11:45;;;;;;;12.87;7.47;;;;;;;19.63;100.00;62897.38;5094187;28;20250;-73
2022/04/30 08:14:12;;;;;;;10.97;7.40;;;;;;;19.36;100.00;62870.78;5093702;28;20276;-72
2022/04/30 08:16:39;;;;;;;10.03;6.93;;;;;;;18.62;100.00;62790.84;5094066;28;20195;-74
2022/04/30 08:19:06;;;;;;;10.20;6.50;;;;;;;18.53;100.00;62779.09;5094033;28;20276;-72
2022/04/30 08:21:34;;;;;;;7.93;6.70;;;;;;;18.74;100.00;62804.34;5094029;28;20324;-73
2022/04/30 08:24:01;;;;;;;9.80;7.50;;;;;;;18.98;100.00;62829.72;5093844;28;20327;-71
2022/04/30 08:26:28;;;;;;;8.90;7.23;;;;;;;19.26;100.00;62860.50;5093710;28;20203;-73
2022/04/30 08:28:55;;;;;;;9.97;7.60;;;;;;;19.68;100.00;62904.84;5093873;28;20195;-72
2022/04/30 08:31:22;;;;;;;8.97;6.80;;;;;;;20.04;100.00;62938.56;5093682;28;20204;-72
2022/04/30 08:33:49;;;;;;;9.77;6.97;;;;;;;20.33;100.00;62969.94;5091865;28;20224;-72
2022/04/30 08:36:17;;;;;;;8.23;6.70;;;;;;;20.50;100.00;62993.50;5093523;28;20264;-71
2022/04/30 08:38:46;;;;;;;13.60;7.43;;;;;;;20.14;100.00;62954.56;5093663;28;20196;-73
2022/04/30 08:41:13;;;;;;;8.30;6.60;;;;;;;19.52;100.00;62882.38;5093761;28;20199;-71
2022/04/30 08:43:41;;;;;;;11.67;6.40;;;;;;;19.18;100.00;62851.88;5093520;28;20214;-72
2022/04/30 08:46:08;;;;;;;14.13;6.13;;;;;;;18.94;100.00;62820.78;5093332;28;20261;-74
2022/04/30 08:48:35;;;;;;;10.03;6.00;;;;;;;18.95;100.00;62824.44;5093154;28;20658;-72
2022/04/30 08:51:03;;;;;;;5.97;5.23;;;;;;;18.81;100.00;62811.38;5092971;28;20635;-71
2022/04/30 08:53:31;;;;;;;8.07;5.57;;;;;;;18.71;100.00;62801.13;5092942;28;20227;-72
2022/04/30 08:56:00;;;;;;;6.23;5.17;;;;;;;18.75;100.00;62804.88;5093243;28;20677;-71
2022/04/30 08:58:28;;;;;;;8.33;5.03;;;;;;;18.71;100.00;62795.94;5093743;28;20196;-72
2022/04/30 09:00:55;;;;;;;10.90;5.17;;;;;;;19.45;100.00;62883.09;5093189;28;20261;-72
2022/04/30 09:03:22;;;;;;;6.90;4.70;;;;;;;19.19;100.00;62847.25;5093146;28;20200;-73
2022/04/30 09:05:49;;;;;;;9.50;4.50;;;;;;;20.36;100.00;62975.78;5092710;28;20210;-73
2022/04/30 09:08:17;;;;;;;7.03;3.90;;;;;;;20.63;100.00;63004.41;5092874;28;20192;-72
2022/04/30 09:10:43;;;;;;;11.03;4.50;;;;;;;20.77;100.00;63022.69;5092851;28;20204;-72
2022/04/30 09:13:14;;;;;;;6.40;4.30;;;;;;;20.81;100.00;63019.25;5092626;28;20751;-72
2022/04/30 09:15:44;;;;;;;18.70;4.93;;;;;;;21.00;100.00;63047.59;5092880;28;20579;-72
2022/04/30 09:18:11;;;;;;;8.03;4.13;;;;;;;20.49;100.00;62992.41;5092644;28;20206;-73
2022/04/30 09:20:47;;;;;;;6.03;3.80;;;;;;;21.39;100.00;63086.16;5093161;28;20195;-72
2022/04/30 09:23:24;;;;;;;8.20;3.80;;;;;;;21.30;100.00;63079.00;5092748;28;20222;-73
2022/04/30 09:25:53;;;;;;;6.63;3.70;;;;;;;20.55;100.00;62996.31;5092415;28;20198;-71
2022/04/30 09:28:29;;;;;;;5.73;3.70;;;;;;;21.70;100.00;63119.69;5092646;28;20198;-73
2022/04/30 09:31:08;;;;;;;21.67;3.77;;;;;;;21.22;100.00;63070.31;5092822;28;20577;-72
2022/04/30 09:33:36;;;;;;;6.60;3.50;;;;;;;21.53;100.00;63101.31;5092619;28;20280;-74
2022/04/30 09:38:49;;;;;;;4.40;3.10;;;;;;;21.53;100.00;63101.31;5091928;28;20207;-72
2022/04/30 09:41:22;;;;;;;3.50;3.20;;;;;;;21.38;100.00;63085.06;5092286;28;20196;-73
2022/04/30 09:44:12;;;;;;;3.63;3.27;;;;;;;21.41;100.00;63090.91;5092470;28;20282;-73
2022/04/30 09:46:41;;;;;;;3.93;3.30;;;;;;;21.23;100.00;63071.41;5092173;28;20735;-71
2022/04/30 09:54:41;;;;;;;4.17;3.60;;;;;;;21.82;100.00;63135.31;5092384;28;20230;-72
2022/04/30 09:57:09;;;;;;;5.33;3.87;;;;;;;21.99;100.00;63150.56;5091946;28;20196;-73
2022/04/30 09:59:39;;;;;;;4.50;3.70;;;;;;;22.20;100.00;63171.25;5091898;28;20655;-72
2022/04/30 10:02:07;;;;;;;3.90;3.30;;;;;;;22.23;100.00;63177.13;5091464;28;20245;-72
2022/04/30 10:04:35;;;;;;;5.27;3.87;;;;;;;21.77;100.00;63129.88;5092059;28;20249;-73
2022/04/30 10:07:05;;;;;;;6.53;3.43;;;;;;;21.37;100.00;63081.38;5091105;28;20268;-72
2022/04/30 10:09:35;;;;;;;4.57;3.80;;;;;;;22.61;100.00;63220.91;5092003;28;20203;-73
2022/04/30 10:12:11;;;;;;;10.53;4.00;;;;;;;23.27;100.00;63291.34;5091703;28;20235;-73
2022/04/30 10:15:04;;;;;;;7.07;3.87;;;;;;;22.85;100.00;63240.63;5090280;28;20218;-73
2022/04/30 10:17:36;;;;;;;5.77;3.70;;;;;;;22.86;100.00;63244.31;5084189;28;20196;-76
2022/04/30 10:20:08;;;;;;;5.57;3.37;;;;;;;23.23;100.00;63281.81;5091769;28;20199;-74
2022/04/30 10:22:36;;;;;;;4.73;3.70;;;;;;;22.78;100.00;63238.78;5091645;28;20316;-73
2022/04/30 10:25:04;;;;;;;5.67;3.93;;;;;;;23.21;100.00;63282.25;5091776;28;20282;-74
2022/04/30 10:27:42;;;;;;;6.47;4.07;;;;;;;23.27;100.00;63286.16;5091527;28;20199;-73
2022/04/30 10:30:23;;;;;;;7.13;4.30;;;;;;;22.55;100.00;63208.63;5091846;28;20253;-73
2022/04/30 10:33:00;;;;;;;8.30;4.00;;;;;;;22.71;100.00;63230.66;5092153;28;20269;-73
2022/04/30 10:35:31;;;;;;;7.50;4.27;;;;;;;23.02;100.00;63259.06;5091703;28;20265;-73
2022/04/30 10:38:08;;;;;;;5.07;4.30;;;;;;;23.32;100.00;63294.19;5091460;28;20195;-72
2022/04/30 10:40:39;;;;;;;5.20;3.37;;;;;;;23.41;100.00;63301.34;5091704;28;20253;-73
2022/04/30 10:43:15;;;;;;;8.67;3.60;;;;;;;22.80;100.00;63240.41;5091466;28;20206;-75
2022/04/30 10:45:43;;;;;;;6.10;3.53;;;;;;;21.60;100.00;63111.47;5091448;28;20641;-74
2022/04/30 10:48:11;;;;;;;6.50;3.30;;;;;;;21.24;100.00;63072.50;5090227;28;20643;-73
2022/04/30 10:50:38;;;;;;;6.87;3.67;;;;;;;20.97;100.00;63041.75;5095762;28;20196;-72
2022/04/30 10:53:08;;;;;;;7.43;3.90;;;;;;;19.90;100.00;62929.13;5095271;28;20267;-72
2022/04/30 10:55:35;;;;;;;6.43;3.50;;;;;;;20.41;100.00;62981.19;5095426;28;20286;-73
2022/04/30 10:58:02;;;;;;;5.63;3.30;;;;;;;20.19;100.00;62959.97;5095303;28;20203;-73
2022/04/30 11:00:29;;;;;;;3.60;3.30;;;;;;;19.99;100.00;62933.16;5095653;28;20724;-71
2022/04/30 11:03:11;;;;;;;7.37;3.47;;;;;;;19.91;100.00;62927.66;5095293;28;20253;-73
2022/04/30 11:05:38;;;;;;;7.97;3.50;;;;;;;19.87;100.00;62920.19;5094956;28;20211;-72
2022/04/30 11:08:05;;;;;;;9.60;3.50;;;;;;;20.02;100.00;62941.59;5095102;28;20666;-73
2022/04/30 11:10:33;;;;;;;3.90;3.27;;;;;;;20.20;100.00;62955.91;5095119;28;20579;-73
2022/04/30 11:13:08;;;;;;;3.57;2.83;;;;;;;20.15;100.00;62953.59;5094997;28;20686;-71
2022/04/30 11:15:35;;;;;;;5.77;2.90;;;;;;;20.01;100.00;62945.66;5095328;28;20198;-72
2022/04/30 11:18:03;;;;;;;3.80;3.00;;;;;;;19.86;100.00;62922.22;5094837;28;20195;-74
2022/04/30 11:20:32;;;;;;;10.63;3.17;;;;;;;19.76;100.00;62911.41;5094358;28;20731;-73
2022/04/30 11:23:00;;;;;;;2.97;2.47;;;;;;;19.64;100.00;62897.94;5094827;28;20595;-73
2022/04/30 11:25:34;;;;;;;6.33;2.97;;;;;;;18.73;100.00;62803.28;5093776;28;20200;-72
2022/04/30 11:28:01;;;;;;;6.57;3.13;;;;;;;19.17;100.00;62850.78;5095061;28;20199;-72
2022/04/30 11:30:28;;;;;;;3.53;2.73;;;;;;;19.14;100.00;62842.38;5095107;28;20203;-74
2022/04/30 11:32:55;;;;;;;3.67;2.87;;;;;;;19.20;100.00;62854.03;5094472;28;20288;-72
2022/04/30 11:35:21;;;;;;;4.53;2.93;;;;;;;19.10;100.00;62843.22;5094590;28;20617;-73
2022/04/30 11:37:49;;;;;;;4.23;3.03;;;;;;;19.17;100.00;62848.22;5094780;28;20634;-73
2022/04/30 11:40:21;;;;;;;3.20;2.67;;;;;;;19.24;100.00;62853.19;5094988;28;20207;-71
2022/04/30 11:42:55;;;;;;;6.57;3.13;;;;;;;19.22;100.00;62853.59;5094872;28;20210;-73
2022/04/30 11:45:25;;;;;;;4.83;3.00;;;;;;;18.92;100.00;62823.78;5094714;28;20260;-73
2022/04/30 11:47:52;;;;;;;6.00;2.83;;;;;;;19.00;100.00;62827.25;5095168;28;20195;-74
2022/04/30 11:50:21;;;;;;;8.83;3.10;;;;;;;19.10;100.00;62843.22;5094238;28;20253;-73
2022/04/30 11:52:51;;;;;;;12.07;3.17;;;;;;;18.95;100.00;62827.03;5094527;28;20663;-72